Time;durP1;ratioP1;P1;durP2;ratioP2;P2;SDS_P1;SDS_P2;PMS_P1;PMS_P2;Temp;Humidity;BMP_temperature;BMP_pressure;BME280_temperature;BME280_humidity;BME280_pressure;Samples;Min_cycle;Max_cycle;Signal;HPM_P1;HPM_P2
2022/12/07 00:01:40;;;;;;;1.40;1.30;;;;;;;-10.86;57.77;100432.22;4915136;29;20052;-83
2022/12/07 00:04:11;;;;;;;1.50;1.40;;;;;;;-10.91;57.73;100427.25;4915245;29;20135;-83
2022/12/07 00:06:42;;;;;;;1.38;1.27;;;;;;;-10.93;57.86;100437.75;4898372;29;20063;-83
2022/12/07 00:09:14;;;;;;;1.50;1.40;;;;;;;-11.02;57.97;100438.16;4914947;29;20056;-83
2022/12/07 00:11:42;;;;;;;1.60;1.50;;;;;;;-11.05;58.27;100445.28;4914703;29;20079;-83
2022/12/07 00:14:14;;;;;;;1.48;1.38;;;;;;;-11.06;57.99;100428.81;4914663;29;20051;-82
2022/12/07 00:16:42;;;;;;;1.45;1.35;;;;;;;-11.06;58.22;100443.59;4914669;29;20047;-83
2022/12/07 00:19:10;;;;;;;1.30;1.20;;;;;;;-11.14;58.48;100429.16;4914697;29;20044;-82
2022/12/07 00:21:38;;;;;;;1.40;1.30;;;;;;;-11.17;58.59;100428.44;4914393;29;20044;-83
2022/12/07 00:24:05;;;;;;;1.35;1.25;;;;;;;-11.24;58.97;100427.91;4897415;29;20073;-82
2022/12/07 00:26:35;;;;;;;1.40;1.30;;;;;;;-11.22;58.94;100430.44;4914195;29;20477;-82
2022/12/07 00:29:17;;;;;;;1.20;1.20;;;;;;;-11.18;58.92;100430.22;4913038;29;20438;-83
2022/12/07 00:31:44;;;;;;;1.50;1.40;;;;;;;-11.25;59.01;100417.53;4914619;29;20423;-83
2022/12/07 00:34:19;;;;;;;1.35;1.25;;;;;;;-11.32;59.06;100435.22;4914510;29;20534;-82
2022/12/07 00:36:47;;;;;;;1.40;1.30;;;;;;;-11.33;59.34;100424.88;4914339;29;20108;-82
2022/12/07 00:39:14;;;;;;;1.45;1.35;;;;;;;-11.37;59.47;100430.25;4897467;29;20392;-81
2022/12/07 00:41:41;;;;;;;1.30;1.20;;;;;;;-11.35;59.44;100425.78;4897188;29;20467;-82
2022/12/07 00:44:09;;;;;;;1.27;1.20;;;;;;;-11.39;59.33;100437.28;4897369;29;20058;-81
2022/12/07 00:46:36;;;;;;;1.58;1.48;;;;;;;-11.39;59.54;100436.44;4914060;29;20052;-82
2022/12/07 00:49:03;;;;;;;1.50;1.40;;;;;;;-11.45;59.70;100434.94;4914257;29;20056;-82
2022/12/07 00:51:30;;;;;;;1.50;1.40;;;;;;;-11.51;60.03;100435.22;4914068;29;20059;-83
2022/12/07 00:53:57;;;;;;;1.50;1.40;;;;;;;-11.49;59.83;100433.41;4914482;29;20515;-82
2022/12/07 00:56:26;;;;;;;1.38;1.27;;;;;;;-11.45;59.83;100439.31;4914090;29;20099;-83
2022/12/07 00:58:55;;;;;;;1.40;1.30;;;;;;;-11.48;59.61;100429.88;4914160;29;20104;-82
2022/12/07 01:01:23;;;;;;;1.63;1.52;;;;;;;-11.48;59.84;100435.09;4914145;29;20519;-82
2022/12/07 01:03:51;;;;;;;1.40;1.30;;;;;;;-11.51;59.99;100430.00;4913060;29;20051;-82
2022/12/07 01:06:20;;;;;;;1.40;1.30;;;;;;;-11.47;59.97;100441.97;4914342;29;20104;-82
2022/12/07 01:08:47;;;;;;;1.48;1.38;;;;;;;-11.48;59.83;100424.66;4914240;29;20134;-83
2022/12/07 01:11:16;;;;;;;1.50;1.40;;;;;;;-11.50;59.89;100421.28;4897564;29;20107;-83
2022/12/07 01:13:43;;;;;;;1.42;1.33;;;;;;;-11.51;59.91;100421.34;4914015;29;20110;-83
2022/12/07 01:16:13;;;;;;;1.50;1.40;;;;;;;-11.52;59.96;100427.47;4914115;29;20048;-83
2022/12/07 01:18:40;;;;;;;1.50;1.40;;;;;;;-11.55;59.86;100433.66;4913849;29;20045;-83
2022/12/07 01:21:11;;;;;;;1.50;1.40;;;;;;;-11.55;59.96;100423.25;4913985;29;20184;-83
2022/12/07 01:23:38;;;;;;;1.40;1.30;;;;;;;-11.57;60.19;100427.66;4912682;29;20052;-83
2022/12/07 01:26:08;;;;;;;1.50;1.40;;;;;;;-11.60;59.99;100426.06;4913791;29;20142;-83
2022/12/07 01:28:35;;;;;;;1.60;1.50;;;;;;;-11.56;60.05;100426.78;4897000;29;20083;-82
2022/12/07 01:31:14;;;;;;;1.55;1.45;;;;;;;-11.56;60.04;100427.63;4914225;29;20502;-83
2022/12/07 01:33:47;;;;;;;1.55;1.45;;;;;;;-11.66;60.29;100420.28;4913914;29;20419;-84
2022/12/07 01:36:19;;;;;;;1.40;1.30;;;;;;;-11.71;60.54;100424.84;4898355;29;20052;-83
2022/12/07 01:38:47;;;;;;;1.63;1.52;;;;;;;-11.76;60.52;100421.63;4917501;29;20063;-83
2022/12/07 01:41:16;;;;;;;1.50;1.40;;;;;;;-11.82;60.99;100412.31;4900468;29;20044;-83
2022/12/07 01:44:08;;;;;;;1.45;1.35;;;;;;;-11.78;60.91;100406.88;4917484;29;20048;-83
2022/12/07 01:46:36;;;;;;;1.40;1.30;;;;;;;-11.75;61.00;100410.28;4901028;29;20186;-82
2022/12/07 01:49:09;;;;;;;1.48;1.38;;;;;;;-11.81;61.08;100395.78;4921091;29;20058;-84
2022/12/07 01:51:37;;;;;;;1.50;1.40;;;;;;;-11.83;61.35;100406.25;4903222;29;20044;-84
2022/12/07 01:54:04;;;;;;;1.30;1.20;;;;;;;-11.83;61.17;100398.44;4885244;29;20131;-83
2022/12/07 01:56:32;;;;;;;1.70;1.60;;;;;;;-11.87;61.43;100401.31;4917740;29;20143;-84
2022/12/07 01:59:00;;;;;;;1.40;1.30;;;;;;;-11.91;61.50;100392.75;4920697;29;20058;-83
2022/12/07 02:01:28;;;;;;;1.40;1.30;;;;;;;-11.90;61.59;100391.88;4903889;29;20169;-83
2022/12/07 02:03:55;;;;;;;1.40;1.30;;;;;;;-11.91;61.63;100395.38;4920804;29;20196;-83
2022/12/07 02:06:24;;;;;;;1.40;1.30;;;;;;;-11.90;61.67;100402.28;4904337;29;20486;-83
2022/12/07 02:08:52;;;;;;;1.23;1.17;;;;;;;-11.92;61.69;100393.69;4903358;29;20044;-83
2022/12/07 02:11:19;;;;;;;1.42;1.33;;;;;;;-11.93;61.90;100393.75;4918938;29;20052;-83
2022/12/07 02:13:47;;;;;;;1.48;1.38;;;;;;;-11.92;61.90;100395.41;4900083;29;20650;-82
2022/12/07 02:16:38;;;;;;;1.60;1.50;;;;;;;-11.98;62.01;100393.94;4900064;29;20059;-82
2022/12/07 02:19:31;;;;;;;1.60;1.50;;;;;;;-11.97;62.19;100387.84;4884655;29;20147;-83
2022/12/07 02:22:04;;;;;;;1.50;1.40;;;;;;;-11.97;62.19;100386.97;4916943;29;20052;-83
2022/12/07 02:24:37;;;;;;;1.30;1.20;;;;;;;-12.01;62.05;100383.66;4900372;29;20052;-83
2022/12/07 02:30:10;;;;;;;1.40;1.30;;;;;;;-12.01;62.46;100383.66;4916810;29;20134;-82
2022/12/07 02:32:59;;;;;;;1.60;1.50;;;;;;;-11.98;62.47;100380.91;4899860;29;20084;-81
2022/12/07 02:35:32;;;;;;;1.50;1.40;;;;;;;-12.05;62.56;100380.38;4916668;29;20063;-81
2022/12/07 02:38:08;;;;;;;1.40;1.30;;;;;;;-12.08;62.62;100382.25;4900071;29;20537;-83
2022/12/07 02:40:41;;;;;;;1.58;1.48;;;;;;;-12.07;62.44;100373.53;4916560;29;20055;-83
2022/12/07 02:43:20;;;;;;;1.45;1.35;;;;;;;-12.11;62.75;100365.00;4900359;29;20147;-83
2022/12/07 02:45:47;;;;;;;1.40;1.30;;;;;;;-12.18;62.84;100380.94;4900396;29;20530;-81
2022/12/07 02:48:16;;;;;;;1.40;1.30;;;;;;;-12.18;63.15;100370.53;4899177;29;20536;-82
2022/12/07 02:50:53;;;;;;;1.40;1.30;;;;;;;-12.19;63.29;100374.06;4899499;29;20056;-80
2022/12/07 02:53:30;;;;;;;1.33;1.23;;;;;;;-12.24;63.47;100375.09;4922037;29;20060;-81
2022/12/07 02:55:59;;;;;;;1.50;1.40;;;;;;;-12.28;63.62;100377.91;4923857;29;20079;-82
2022/12/07 02:58:41;;;;;;;1.52;1.42;;;;;;;-12.30;63.71;100371.94;4899756;29;20072;-81
2022/12/07 03:01:26;;;;;;;1.40;1.30;;;;;;;-12.28;63.94;100383.09;4900071;29;20084;-82
2022/12/07 03:04:20;;;;;;;1.60;1.50;;;;;;;-12.28;63.99;100368.34;4916316;29;20163;-82
2022/12/07 03:06:54;;;;;;;1.38;1.27;;;;;;;-12.25;63.62;100363.00;4805389;29;20054;-82
2022/12/07 03:09:32;;;;;;;1.50;1.40;;;;;;;-12.32;63.84;100368.56;4805734;29;20076;-81
2022/12/07 03:12:17;;;;;;;1.50;1.40;;;;;;;-12.30;63.98;100367.56;4805810;29;20211;-82
2022/12/07 03:14:52;;;;;;;1.50;1.40;;;;;;;-12.33;64.05;100377.25;4821223;29;20051;-81
2022/12/07 03:17:25;;;;;;;1.13;1.13;;;;;;;-12.43;64.28;100376.78;4805470;29;20050;-81
2022/12/07 03:19:53;;;;;;;1.50;1.40;;;;;;;-12.44;64.48;100372.50;4805366;29;20062;-81
2022/12/07 03:22:22;;;;;;;1.38;1.27;;;;;;;-12.44;64.60;100372.50;4805385;29;20402;-82
2022/12/07 03:24:53;;;;;;;1.45;1.35;;;;;;;-12.46;64.66;100369.13;4805579;29;20054;-83
2022/12/07 03:27:24;;;;;;;1.60;1.50;;;;;;;-12.43;64.69;100366.38;4805701;29;20062;-81
2022/12/07 03:30:21;;;;;;;1.50;1.40;;;;;;;-12.40;64.69;100371.47;4828976;29;20054;-83
2022/12/07 03:33:03;;;;;;;1.60;1.50;;;;;;;-12.49;64.85;100359.69;4804799;29;20054;-80
2022/12/07 03:35:40;;;;;;;1.38;1.27;;;;;;;-12.51;64.91;100365.88;4786952;29;20058;-81
2022/12/07 03:38:18;;;;;;;1.50;1.40;;;;;;;-12.50;65.11;100362.38;4802070;29;20072;-81
2022/12/07 03:40:51;;;;;;;1.45;1.35;;;;;;;-12.54;65.23;100360.81;4802118;29;20061;-81
2022/12/07 03:43:19;;;;;;;1.17;1.17;;;;;;;-12.57;65.49;100358.34;4829551;29;20100;-81
2022/12/07 03:46:01;;;;;;;1.40;1.30;;;;;;;-12.49;65.48;100356.25;4893643;29;20052;-82
2022/12/07 03:48:37;;;;;;;1.50;1.40;;;;;;;-12.51;65.39;100361.50;4878288;29;20048;-82
2022/12/07 03:51:20;;;;;;;1.40;1.30;;;;;;;-12.38;65.34;100361.00;4897856;29;20088;-82
2022/12/07 03:53:53;;;;;;;1.25;1.20;;;;;;;-12.42;65.44;100360.28;4848015;29;20044;-81
2022/12/07 03:56:21;;;;;;;1.50;1.40;;;;;;;-12.46;65.65;100362.16;4894857;29;20056;-84
2022/12/07 03:58:49;;;;;;;1.65;1.55;;;;;;;-12.40;65.70;100366.28;4878222;29;20192;-84
2022/12/07 04:01:18;;;;;;;1.40;1.30;;;;;;;-12.48;65.60;100344.94;4894690;29;20061;-83
2022/12/07 04:03:45;;;;;;;1.50;1.40;;;;;;;-12.48;66.01;100353.59;4894337;29;20060;-83
2022/12/07 04:06:12;;;;;;;1.30;1.20;;;;;;;-12.42;66.26;100347.28;4894321;29;20052;-84
2022/12/07 04:08:39;;;;;;;1.40;1.30;;;;;;;-12.40;66.38;100344.59;4899050;29;20048;-84
2022/12/07 04:11:06;;;;;;;1.55;1.45;;;;;;;-12.40;66.45;100355.00;4888686;29;20056;-84
2022/12/07 04:14:18;;;;;;;1.33;1.23;;;;;;;-12.40;66.52;100360.22;4903636;29;20142;-84
2022/12/07 04:16:21;;;;;;;1.33;1.23;;;;;;;-12.50;66.72;100350.22;4916343;29;20091;-84
2022/12/07 04:18:49;;;;;;;1.33;1.23;;;;;;;-12.51;66.85;100352.88;4915161;29;20056;-85
2022/12/07 04:21:16;;;;;;;1.50;1.40;;;;;;;-12.57;67.05;100355.75;4903321;29;20066;-82
2022/12/07 04:23:46;;;;;;;1.70;1.60;;;;;;;-12.53;67.28;100350.34;4920105;29;20052;-82
2022/12/07 04:26:13;;;;;;;1.70;1.60;;;;;;;-12.46;67.53;100350.91;4898553;29;20048;-85
2022/12/07 04:28:40;;;;;;;1.52;1.42;;;;;;;-12.48;67.57;100360.53;4909660;29;20061;-86
2022/12/07 04:31:07;;;;;;;1.70;1.60;;;;;;;-12.51;67.76;100340.69;4898097;29;20053;-86
2022/12/07 04:33:35;;;;;;;1.60;1.50;;;;;;;-12.50;67.81;100346.78;4855021;29;20052;-87
2022/12/07 04:36:02;;;;;;;1.70;1.60;;;;;;;-12.51;67.96;100342.47;4902763;29;20056;-87
2022/12/07 04:38:30;;;;;;;1.48;1.38;;;;;;;-12.49;68.15;100331.09;4900011;29;20044;-87
2022/12/07 04:40:58;;;;;;;1.50;1.40;;;;;;;-12.45;68.25;100337.00;4905399;29;20054;-87
2022/12/07 04:43:25;;;;;;;1.40;1.30;;;;;;;-12.49;68.48;100325.88;4909465;29;20059;-88
2022/12/07 04:45:52;;;;;;;1.60;1.50;;;;;;;-12.42;68.51;100336.88;4905256;29;20381;-87
2022/12/07 04:48:19;;;;;;;1.58;1.48;;;;;;;-12.43;68.69;100329.97;4918614;29;20135;-89
2022/12/07 04:50:49;;;;;;;1.13;1.13;;;;;;;-12.40;68.70;100339.41;4903286;29;20463;-88
2022/12/07 04:53:16;;;;;;;1.70;1.60;;;;;;;-12.44;68.81;100333.50;4897013;29;20122;-88
2022/12/07 04:55:44;;;;;;;1.55;1.45;;;;;;;-12.40;69.07;100337.66;4894634;29;20048;-87
2022/12/07 04:58:12;;;;;;;1.40;1.30;;;;;;;-12.38;69.21;100327.16;4901958;29;20060;-86
2022/12/07 05:00:39;;;;;;;1.40;1.30;;;;;;;-12.44;69.10;100336.94;4896342;29;20172;-86
2022/12/07 05:03:06;;;;;;;1.50;1.40;;;;;;;-12.41;69.24;100337.72;4915502;29;20044;-84
2022/12/07 05:05:35;;;;;;;1.55;1.45;;;;;;;-12.41;69.51;100335.13;4894092;29;20060;-86
2022/12/07 05:08:08;;;;;;;1.48;1.38;;;;;;;-12.54;69.75;100320.03;4876434;29;20053;-84
2022/12/07 05:10:39;;;;;;;1.58;1.48;;;;;;;-12.50;70.11;100323.38;4866009;29;20136;-83
2022/12/07 05:13:06;;;;;;;1.50;1.40;;;;;;;-12.52;70.08;100314.78;4882309;29;20052;-83
2022/12/07 05:15:37;;;;;;;1.70;1.60;;;;;;;-12.53;70.32;100334.75;4864228;29;20132;-84
2022/12/07 05:18:14;;;;;;;1.40;1.30;;;;;;;-12.54;70.47;100320.03;4899872;29;20131;-85
2022/12/07 05:21:13;;;;;;;1.50;1.40;;;;;;;-12.56;71.20;100308.00;4900913;29;20453;-85
2022/12/07 05:23:58;;;;;;;1.55;1.45;;;;;;;-12.42;71.08;100321.28;4900562;29;20095;-84
2022/12/07 05:26:26;;;;;;;1.38;1.27;;;;;;;-12.42;71.02;100315.22;4882901;29;20088;-84
2022/12/07 05:28:54;;;;;;;1.38;1.27;;;;;;;-12.41;71.24;100338.56;4909467;29;20052;-84
2022/12/07 05:31:23;;;;;;;1.55;1.45;;;;;;;-12.32;71.64;100334.72;4920062;29;20615;-85
2022/12/07 05:33:50;;;;;;;1.40;1.30;;;;;;;-12.40;71.72;100328.97;4905047;29;20052;-86
2022/12/07 05:36:18;;;;;;;1.50;1.40;;;;;;;-12.42;71.79;100330.84;4920362;29;20060;-86
2022/12/07 05:38:45;;;;;;;1.45;1.35;;;;;;;-12.38;71.88;100327.16;4903761;29;20048;-85
2022/12/07 05:44:03;;;;;;;1.45;1.35;;;;;;;-12.39;72.49;100341.09;4926550;29;20059;-85
2022/12/07 05:46:37;;;;;;;1.38;1.27;;;;;;;-12.36;72.71;100333.16;4905954;29;20056;-84
2022/12/07 05:49:04;;;;;;;1.58;1.48;;;;;;;-12.34;72.85;100329.56;4922220;29;20058;-85
2022/12/07 05:51:31;;;;;;;1.50;1.40;;;;;;;-12.36;72.95;100330.56;4920807;29;20164;-85
2022/12/07 05:53:58;;;;;;;1.55;1.45;;;;;;;-12.33;73.25;100326.09;4919505;29;20067;-85
2022/12/07 05:56:26;;;;;;;1.40;1.30;;;;;;;-12.31;73.39;100331.19;4902907;29;20108;-84
2022/12/07 06:01:40;;;;;;;1.52;1.42;;;;;;;-12.38;73.48;100319.38;4917726;29;20103;-85
2022/12/07 06:04:07;;;;;;;1.30;1.20;;;;;;;-12.32;73.93;100319.94;4918059;29;20080;-85
2022/12/07 06:06:34;;;;;;;1.60;1.50;;;;;;;-12.24;73.86;100320.44;4920161;29;20107;-85
2022/12/07 06:09:02;;;;;;;1.35;1.25;;;;;;;-12.14;74.12;100322.66;4936786;29;20051;-83
2022/12/07 06:14:29;;;;;;;1.65;1.55;;;;;;;-12.05;73.86;100332.63;4934725;29;20044;-85
2022/12/07 06:16:56;;;;;;;1.60;1.50;;;;;;;-12.09;73.56;100328.50;4910518;29;20059;-84
2022/12/07 06:19:23;;;;;;;1.30;1.20;;;;;;;-12.12;73.90;100331.25;4918228;29;20535;-85
2022/12/07 06:21:51;;;;;;;1.60;1.50;;;;;;;-12.12;74.15;100334.69;4916450;29;20052;-85
2022/12/07 06:24:18;;;;;;;1.10;1.10;;;;;;;-12.14;74.14;100331.31;4917572;29;20055;-84
2022/12/07 06:26:45;;;;;;;1.50;1.40;;;;;;;-12.08;74.42;100335.38;4884778;29;20074;-84
2022/12/07 06:29:12;;;;;;;1.23;1.20;;;;;;;-12.06;74.32;100329.19;4918291;29;20059;-85
2022/12/07 06:31:40;;;;;;;1.38;1.27;;;;;;;-11.99;74.33;100334.97;4918029;29;20131;-84
2022/12/07 06:34:14;;;;;;;1.40;1.30;;;;;;;-11.94;74.25;100335.63;4917829;29;20048;-84
2022/12/07 06:36:42;;;;;;;1.63;1.52;;;;;;;-11.95;74.23;100340.88;4918231;29;20056;-84
2022/12/07 06:39:10;;;;;;;1.50;1.40;;;;;;;-11.95;74.21;100338.28;4903605;29;20076;-87
2022/12/07 06:41:38;;;;;;;1.38;1.27;;;;;;;-11.94;74.38;100337.38;4926861;29;20048;-84
2022/12/07 06:44:19;;;;;;;1.60;1.50;;;;;;;-11.88;74.29;100332.72;4923409;29;20055;-85
2022/12/07 06:46:46;;;;;;;1.60;1.50;;;;;;;-11.84;74.15;100331.66;4920805;29;20056;-85
2022/12/07 06:49:14;;;;;;;1.55;1.45;;;;;;;-11.81;74.03;100331.50;4919537;29;20507;-84
2022/12/07 06:51:42;;;;;;;1.50;1.40;;;;;;;-11.73;74.00;100336.38;4903719;29;20499;-84
2022/12/07 06:54:10;;;;;;;1.73;1.63;;;;;;;-11.66;73.77;100332.56;4906110;29;20364;-84
2022/12/07 06:56:37;;;;;;;1.35;1.25;;;;;;;-11.59;73.75;100320.13;4924178;29;20047;-85
2022/12/07 06:59:06;;;;;;;1.40;1.30;;;;;;;-11.53;73.38;100339.81;4921793;29;20056;-85
2022/12/07 07:01:34;;;;;;;1.50;1.40;;;;;;;-11.48;73.44;100343.88;4901325;29;20056;-84
2022/12/07 07:04:04;;;;;;;1.60;1.50;;;;;;;-11.27;73.06;100330.75;4901786;29;20044;-84
2022/12/07 07:06:31;;;;;;;1.60;1.50;;;;;;;-11.03;72.17;100341.78;4919920;29;20052;-85
2022/12/07 07:08:58;;;;;;;1.50;1.40;;;;;;;-10.91;71.81;100328.97;4900675;29;20154;-85
2022/12/07 07:11:26;;;;;;;1.50;1.40;;;;;;;-10.76;71.07;100334.34;4918360;29;20052;-84
2022/12/07 07:13:53;;;;;;;1.40;1.30;;;;;;;-10.66;70.88;100324.28;4917191;29;20135;-84
2022/12/07 07:16:20;;;;;;;1.48;1.38;;;;;;;-10.47;70.08;100330.28;4923656;29;20088;-85
2022/12/07 07:18:47;;;;;;;1.67;1.58;;;;;;;-10.40;69.62;100322.97;4932251;29;20480;-84
2022/12/07 07:21:14;;;;;;;1.63;1.52;;;;;;;-10.21;69.31;100336.72;4903820;29;20072;-85
2022/12/07 07:23:41;;;;;;;1.60;1.50;;;;;;;-10.19;68.87;100324.44;4915122;29;20068;-84
2022/12/07 07:26:08;;;;;;;1.58;1.48;;;;;;;-10.03;68.40;100324.47;4918381;29;20118;-84
2022/12/07 07:28:35;;;;;;;1.60;1.50;;;;;;;-9.81;67.82;100321.56;4916659;29;20063;-84
2022/12/07 07:31:03;;;;;;;1.60;1.50;;;;;;;-9.73;67.35;100319.34;4916522;29;20141;-84
2022/12/07 07:33:32;;;;;;;1.55;1.45;;;;;;;-9.55;66.93;100308.84;4899158;29;20056;-84
2022/12/07 07:35:59;;;;;;;1.40;1.30;;;;;;;-9.32;66.29;100315.41;4915860;29;20136;-84
2022/12/07 07:38:26;;;;;;;1.63;1.52;;;;;;;-9.22;65.63;100320.00;4918160;29;20064;-85
2022/12/07 07:40:53;;;;;;;1.50;1.40;;;;;;;-9.10;65.15;100323.72;4916374;29;20048;-85
2022/12/07 07:43:21;;;;;;;1.50;1.40;;;;;;;-8.92;64.71;100316.59;4916232;29;20107;-84
2022/12/07 07:45:49;;;;;;;1.70;1.60;;;;;;;-8.79;64.18;100307.09;4917218;29;20048;-85
2022/12/07 07:48:16;;;;;;;1.58;1.48;;;;;;;-8.60;63.40;100314.72;4916818;29;20079;-85
2022/12/07 07:50:43;;;;;;;1.50;1.40;;;;;;;-8.44;63.02;100312.03;4917328;29;20051;-85
2022/12/07 07:53:10;;;;;;;1.50;1.40;;;;;;;-8.22;62.28;100308.94;4917130;29;20111;-85
2022/12/07 07:55:37;;;;;;;1.50;1.40;;;;;;;-8.00;62.07;100298.00;4915858;29;20063;-85
2022/12/07 07:58:04;;;;;;;1.33;1.23;;;;;;;-7.91;61.08;100310.53;4915737;29;20529;-84
2022/12/07 08:00:33;;;;;;;1.60;1.50;;;;;;;-7.72;60.62;100302.38;4918662;29;20052;-85
2022/12/07 08:03:00;;;;;;;1.40;1.30;;;;;;;-7.70;60.36;100302.25;4920640;29;20112;-85
2022/12/07 08:05:27;;;;;;;1.60;1.50;;;;;;;-7.45;59.25;100310.25;4920230;29;20052;-83
2022/12/07 08:07:54;;;;;;;1.50;1.40;;;;;;;-7.17;59.25;100300.63;4916720;29;20088;-84
2022/12/07 08:10:21;;;;;;;1.48;1.38;;;;;;;-7.16;58.36;100304.94;4901527;29;20055;-84
2022/12/07 08:15:38;;;;;;;1.60;1.50;;;;;;;-6.88;57.35;100297.88;4917899;29;20076;-84
2022/12/07 08:18:05;;;;;;;1.60;1.50;;;;;;;-6.92;56.71;100291.16;4914593;29;20048;-84
2022/12/07 08:20:46;;;;;;;1.40;1.30;;;;;;;-6.83;56.44;100293.16;4914085;29;20143;-84
2022/12/07 08:23:14;;;;;;;1.42;1.33;;;;;;;-6.74;55.98;100299.59;4915117;29;20159;-84
2022/12/07 08:25:41;;;;;;;1.50;1.40;;;;;;;-6.48;55.81;100284.69;4915381;29;20124;-84
2022/12/07 08:28:07;;;;;;;1.30;1.20;;;;;;;-6.34;55.20;100288.06;4914784;29;20427;-85
2022/12/07 08:30:35;;;;;;;1.10;1.10;;;;;;;-5.95;54.65;100272.25;4914557;29;20062;-85
2022/12/07 08:33:02;;;;;;;1.40;1.30;;;;;;;-5.79;53.57;100298.31;4914168;29;20050;-84
2022/12/07 08:35:29;;;;;;;1.00;1.00;;;;;;;-5.71;53.04;100294.16;4914639;29;20052;-85
2022/12/07 08:37:57;;;;;;;1.40;1.30;;;;;;;-5.36;52.50;100290.81;4914709;29;20059;-84
2022/12/07 08:40:24;;;;;;;1.40;1.30;;;;;;;-4.99;51.27;100274.09;4907101;29;20111;-85
2022/12/07 08:42:52;;;;;;;1.00;1.00;;;;;;;-4.98;50.31;100271.38;4917349;29;20060;-85
2022/12/07 08:45:20;;;;;;;1.17;1.15;;;;;;;-4.81;50.38;100270.09;4916776;29;20546;-85
2022/12/07 08:48:03;;;;;;;1.13;1.13;;;;;;;-4.59;49.10;100259.59;4884946;29;20534;-84
2022/12/07 08:50:31;;;;;;;1.40;1.30;;;;;;;-4.34;48.74;100262.19;4914946;29;20048;-85
2022/12/07 08:52:59;;;;;;;1.20;1.20;;;;;;;-4.23;48.46;100281.50;4900267;29;20397;-85
2022/12/07 08:55:27;;;;;;;1.10;1.10;;;;;;;-4.18;47.77;100267.94;4914740;29;20052;-84
2022/12/07 08:57:54;;;;;;;1.00;1.00;;;;;;;-4.25;47.30;100266.75;4898673;29;20148;-85
2022/12/07 09:00:22;;;;;;;1.17;1.17;;;;;;;-4.05;47.69;100252.00;4898552;29;20044;-85
2022/12/07 09:02:49;;;;;;;0.90;0.90;;;;;;;-3.81;47.20;100265.06;4899679;29;20044;-86
2022/12/07 09:05:16;;;;;;;1.00;1.00;;;;;;;-3.58;46.37;100269.34;4915120;29;20056;-84
2022/12/07 09:07:45;;;;;;;1.00;1.00;;;;;;;-3.67;46.42;100256.03;4913910;29;20056;-86
2022/12/07 09:10:12;;;;;;;1.05;1.05;;;;;;;-3.71;46.07;100248.38;4900113;29;20131;-84
2022/12/07 09:12:39;;;;;;;1.00;1.00;;;;;;;-3.58;45.94;100239.47;4920741;29;20059;-84
2022/12/07 09:15:08;;;;;;;0.90;0.90;;;;;;;-3.66;45.55;100242.72;4899324;29;20052;-84
2022/12/07 09:17:35;;;;;;;0.90;0.90;;;;;;;-3.46;45.68;100256.97;4914924;29;20056;-85
2022/12/07 09:20:07;;;;;;;1.00;1.00;;;;;;;-3.59;44.91;100249.19;4883287;29;20055;-84
2022/12/07 09:22:34;;;;;;;0.90;0.90;;;;;;;-3.67;44.90;100264.81;4903836;29;20051;-84
2022/12/07 09:25:01;;;;;;;1.13;1.13;;;;;;;-3.69;44.61;100242.97;4918042;29;20504;-84
2022/12/07 09:27:34;;;;;;;1.27;1.20;;;;;;;-3.49;44.63;100236.94;4897339;29;20076;-84
2022/12/07 09:30:01;;;;;;;1.15;1.15;;;;;;;-3.41;44.23;100231.03;4913967;29;20174;-84
2022/12/07 09:32:29;;;;;;;1.10;1.10;;;;;;;-3.35;43.79;100229.69;4898655;29;20044;-87
2022/12/07 09:34:57;;;;;;;1.10;1.10;;;;;;;-3.18;43.49;100226.50;4916800;29;20083;-85
2022/12/07 09:37:24;;;;;;;1.10;1.10;;;;;;;-3.07;43.16;100218.53;4892114;29;20105;-84
2022/12/07 09:39:51;;;;;;;1.25;1.20;;;;;;;-2.94;43.21;100217.50;4908293;29;20080;-85
2022/12/07 09:42:28;;;;;;;0.90;0.90;;;;;;;-2.60;42.63;100214.69;4895968;29;20132;-84
2022/12/07 09:44:56;;;;;;;0.80;0.80;;;;;;;-2.48;42.30;100193.34;4881564;29;20056;-84
2022/12/07 09:47:23;;;;;;;1.15;1.15;;;;;;;-2.90;41.93;100214.47;4876969;29;20056;-84
2022/12/07 09:49:50;;;;;;;1.30;1.20;;;;;;;-2.78;42.12;100206.50;4878239;29;20048;-85
2022/12/07 09:52:21;;;;;;;0.90;0.90;;;;;;;-2.47;41.60;100200.28;4891590;29;20079;-86
2022/12/07 09:54:49;;;;;;;1.45;1.35;;;;;;;-2.06;41.10;100200.31;4894062;29;20048;-85
2022/12/07 09:57:18;;;;;;;1.10;1.10;;;;;;;-2.01;40.98;100193.66;4904694;29;20057;-86
2022/12/07 09:59:45;;;;;;;1.10;1.10;;;;;;;-1.83;40.61;100198.28;4868525;29;20068;-84
2022/12/07 10:02:24;;;;;;;1.08;1.08;;;;;;;-2.08;40.48;100202.25;4875775;29;20048;-83
2022/12/07 10:04:51;;;;;;;1.00;1.00;;;;;;;-2.11;40.52;100191.94;4915989;29;20450;-82
2022/12/07 10:07:19;;;;;;;1.10;1.10;;;;;;;-1.95;40.02;100173.75;4913700;29;20044;-83
2022/12/07 10:09:46;;;;;;;1.08;1.08;;;;;;;-2.16;40.31;100191.50;4909368;29;20056;-83
2022/12/07 10:12:13;;;;;;;1.10;1.10;;;;;;;-1.78;40.44;100185.50;4897518;29;20060;-83
2022/12/07 10:15:00;;;;;;;1.52;1.42;;;;;;;-1.61;39.98;100176.06;4863551;29;20056;-85
2022/12/07 10:17:49;;;;;;;1.00;1.00;;;;;;;-2.10;40.05;100175.09;4894847;29;20777;-86
2022/12/07 10:20:26;;;;;;;1.30;1.20;;;;;;;-1.80;40.29;100188.28;4833924;29;20064;-86
2022/12/07 10:22:54;;;;;;;1.00;1.00;;;;;;;-1.55;39.54;100168.38;4889784;29;20100;-87
2022/12/07 10:25:26;;;;;;;1.25;1.17;;;;;;;-1.53;39.59;100186.78;4903929;29;20052;-86
2022/12/07 10:28:11;;;;;;;0.90;0.90;;;;;;;-1.22;38.93;100187.50;4908703;29;20605;-88
2022/12/07 10:31:02;;;;;;;0.95;0.95;;;;;;;-1.40;38.56;100179.41;4915152;29;20294;-86
2022/12/07 10:33:49;;;;;;;1.25;1.17;;;;;;;-1.37;38.65;100173.84;4897696;29;20055;-85
2022/12/07 10:36:32;;;;;;;1.10;1.10;;;;;;;-1.44;38.92;100178.03;4923667;29;20167;-86
2022/12/07 10:39:13;;;;;;;1.05;1.05;;;;;;;-1.58;39.27;100176.59;4917102;29;20056;-85
2022/12/07 10:42:02;;;;;;;1.00;1.00;;;;;;;-1.29;38.71;100169.66;4885741;29;20473;-84
2022/12/07 10:44:31;;;;;;;0.98;0.98;;;;;;;-1.67;39.16;100161.56;4915710;29;20138;-85
2022/12/07 10:47:07;;;;;;;1.08;1.08;;;;;;;-1.45;39.13;100178.16;4920558;29;20429;-84
2022/12/07 10:49:40;;;;;;;0.90;0.90;;;;;;;-1.75;39.00;100166.69;4918369;29;20044;-85
2022/12/07 10:52:18;;;;;;;1.10;1.10;;;;;;;-1.91;39.20;100174.31;4898954;29;20096;-85
2022/12/07 10:55:22;;;;;;;1.13;1.13;;;;;;;-1.80;39.77;100153.88;4901612;29;20044;-85
2022/12/07 10:58:04;;;;;;;1.30;1.20;;;;;;;-1.05;39.13;100155.97;4899981;29;20595;-85
2022/12/07 11:00:40;;;;;;;1.23;1.20;;;;;;;-1.24;38.20;100159.47;4863884;29;20057;-85
2022/12/07 11:03:28;;;;;;;1.30;1.20;;;;;;;-1.89;39.21;100148.56;4870252;29;20052;-86
2022/12/07 11:06:14;;;;;;;1.10;1.10;;;;;;;-2.07;40.09;100149.22;4902106;29;20053;-86
2022/12/07 11:09:16;;;;;;;1.27;1.17;;;;;;;-1.61;39.85;100129.22;4904063;29;20108;-86
2022/12/07 11:12:17;;;;;;;1.33;1.23;;;;;;;-1.53;39.29;100147.06;4882601;29;20056;-85
2022/12/07 11:14:56;;;;;;;1.10;1.10;;;;;;;-1.20;38.68;100137.84;4891813;29;20052;-85
2022/12/07 11:17:54;;;;;;;0.90;0.90;;;;;;;-1.03;38.97;100133.66;4919365;29;20083;-86
2022/12/07 11:20:39;;;;;;;1.13;1.13;;;;;;;-1.01;38.63;100139.66;4878747;29;20511;-85
2022/12/07 11:23:24;;;;;;;1.10;1.10;;;;;;;-1.25;39.11;100132.16;4876682;29;20053;-85
2022/12/07 11:26:48;;;;;;;1.25;1.17;;;;;;;-1.69;39.71;100134.38;4872953;29;20077;-85
2022/12/07 11:29:34;;;;;;;1.30;1.20;;;;;;;-1.89;39.86;100127.41;4797081;29;20105;-86
2022/12/07 11:32:12;;;;;;;1.30;1.20;;;;;;;-2.00;40.00;100121.25;4831015;29;20189;-86
2022/12/07 11:34:55;;;;;;;0.93;0.93;;;;;;;-2.75;40.97;100133.09;4821951;29;20070;-86
2022/12/07 11:37:31;;;;;;;1.00;1.00;;;;;;;-2.51;41.25;100119.56;4825111;29;20082;-86
2022/12/07 11:40:38;;;;;;;1.00;1.00;;;;;;;-2.58;41.09;100123.72;4812395;29;20665;-85
2022/12/07 11:43:34;;;;;;;1.15;1.13;;;;;;;-2.87;41.52;100118.28;4817418;29;20056;-87
2022/12/07 11:46:15;;;;;;;1.00;1.00;;;;;;;-2.61;41.66;100110.75;4815097;29;20066;-85
2022/12/07 11:48:55;;;;;;;1.20;1.20;;;;;;;-2.72;41.33;100101.09;4816382;29;20077;-85
2022/12/07 11:51:26;;;;;;;1.40;1.30;;;;;;;-3.02;41.94;100099.28;4809169;29;20159;-86
2022/12/07 11:54:03;;;;;;;1.30;1.20;;;;;;;-3.25;42.28;100109.16;4825545;29;20060;-85
2022/12/07 11:56:36;;;;;;;0.90;0.90;;;;;;;-3.34;42.30;100079.09;4813161;29;20107;-85